createdAt,value
2024-01-24T00:01:19.870Z,8.20
2024-01-24T00:14:19.859Z,7.10
2024-01-24T00:27:19.855Z,6.65
2024-01-24T00:40:19.884Z,6.60
2024-01-24T00:53:19.875Z,7.30
2024-01-24T01:06:19.920Z,5.60
2024-01-24T01:19:19.912Z,5.00
2024-01-24T01:32:19.901Z,5.20
2024-01-24T01:45:19.936Z,4.60
2024-01-24T01:58:19.933Z,4.60
2024-01-24T02:11:19.931Z,4.70
2024-01-24T02:24:19.941Z,4.00
2024-01-24T02:37:19.966Z,4.00
2024-01-24T02:50:19.969Z,3.50
2024-01-24T03:03:19.973Z,3.15
2024-01-24T03:16:19.995Z,3.00
2024-01-24T03:29:19.998Z,3.40
2024-01-24T03:42:20.014Z,3.20
2024-01-24T03:55:19.984Z,2.50
2024-01-24T04:08:20.035Z,3.70
2024-01-24T04:21:20.043Z,2.60
2024-01-24T04:34:20.190Z,2.60
2024-01-24T04:47:20.121Z,2.30
2024-01-24T05:00:20.070Z,2.90
2024-01-24T05:13:20.055Z,2.40
2024-01-24T05:26:20.094Z,3.45
2024-01-24T05:39:20.097Z,2.30
2024-01-24T05:52:20.093Z,2.80
2024-01-24T06:05:20.158Z,5.00
2024-01-24T06:18:20.258Z,6.20
2024-01-24T06:31:20.230Z,8.50
2024-01-24T06:45:20.142Z,8.80
2024-01-24T06:59:20.135Z,8.30
2024-01-24T07:14:20.198Z,8.30
2024-01-24T07:28:20.175Z,9.60
2024-01-24T07:42:20.183Z,8.70
2024-01-24T07:56:24.178Z,8.90
2024-01-24T08:10:20.304Z,7.80
2024-01-24T08:24:20.231Z,8.25
2024-01-24T08:38:20.185Z,8.70
2024-01-24T08:52:20.203Z,8.70
2024-01-24T09:06:20.224Z,7.70
2024-01-24T09:20:20.319Z,8.25
2024-01-24T09:34:20.411Z,8.90
2024-01-24T09:48:20.362Z,15.30
2024-01-24T10:02:20.270Z,23.30
2024-01-24T10:16:20.297Z,26.90
2024-01-24T10:30:20.309Z,33.90
2024-01-24T10:44:20.329Z,32.70
2024-01-24T10:58:20.349Z,25.00
2024-01-24T11:12:20.458Z,24.40
2024-01-24T11:26:20.356Z,21.00
2024-01-24T11:40:20.353Z,20.40
2024-01-24T11:54:20.352Z,18.40
2024-01-24T12:08:20.384Z,14.70
2024-01-24T12:22:20.427Z,15.10
2024-01-24T12:36:21.209Z,12.80
2024-01-24T12:51:20.484Z,13.40
2024-01-24T13:06:20.530Z,12.40
2024-01-24T13:21:20.491Z,21.30
2024-01-24T13:35:20.630Z,19.65
2024-01-24T13:49:20.555Z,19.50
2024-01-24T14:03:20.506Z,21.30
2024-01-24T14:17:20.502Z,18.10
2024-01-24T14:31:20.529Z,17.40
2024-01-24T14:45:20.577Z,19.20
2024-01-24T14:59:20.599Z,17.10
2024-01-24T15:13:20.606Z,12.80
2024-01-24T15:27:20.712Z,13.20
2024-01-24T15:41:20.612Z,14.10
2024-01-24T15:55:20.909Z,15.80
2024-01-24T16:09:21.054Z,17.10
2024-01-24T16:23:20.669Z,17.40
2024-01-24T16:37:20.647Z,14.90
2024-01-24T16:51:20.968Z,14.70
2024-01-24T17:04:20.681Z,13.70
2024-01-24T17:17:21.618Z,13.00
2024-01-24T17:30:21.210Z,12.40
2024-01-24T17:43:21.651Z,11.80
2024-01-24T17:56:23.572Z,13.70
2024-01-24T18:09:21.248Z,12.80
2024-01-24T18:23:20.727Z,12.80
2024-01-24T18:36:22.031Z,12.60
2024-01-24T18:49:23.336Z,12.50
2024-01-24T19:02:22.270Z,13.50
2024-01-24T19:15:22.025Z,12.60
2024-01-24T19:28:23.622Z,12.10
2024-01-24T19:41:22.156Z,11.50
2024-01-24T19:54:22.193Z,11.90
2024-01-24T20:07:23.180Z,11.60
2024-01-24T20:20:22.176Z,12.90
2024-01-24T20:33:20.837Z,11.30
2024-01-24T20:46:23.381Z,13.00
2024-01-24T20:59:25.290Z,11.90
2024-01-24T21:12:22.183Z,11.50
2024-01-24T21:25:21.959Z,12.00
2024-01-24T21:38:20.875Z,13.30
2024-01-24T21:51:22.073Z,11.80
2024-01-24T22:04:20.919Z,14.40
2024-01-24T22:17:20.884Z,12.45
2024-01-24T22:30:20.901Z,12.60
2024-01-24T22:43:20.949Z,11.00
2024-01-24T22:56:20.916Z,11.20
2024-01-24T23:09:21.708Z,12.20
2024-01-24T23:22:21.837Z,11.60
2024-01-24T23:35:21.019Z,11.80
2024-01-24T23:48:21.054Z,13.20
